Terminal Aerodrome Forecast
Issued by NWS La Crosse, WI

Home | Current Version | Previous Version | Text Only | Print | Product List | Glossary On
Versions: 1 2 3 4 5 6 7 8 9 10 11 12 13 14 15 16 17 18 19 20 21 22 23 24 25 26 27 28 29 30 31 32 33 34 35 36 37 38 39 40 41 42 43 44 45 46 47 48 49
000
FTUS43 KARX 211258 AAA
TAFLSE
TAF AMD
KLSE 211258Z 2113/2212 13005KT 5SM -RA VCTS BKN035CB
      TEMPO 2113/2115 2SM TSRA BKN025CB
     FM211500 16007KT 5SM -SHRA VCTS BKN030CB
     FM211700 19009KT P6SM BKN040
     FM212100 19008KT P6SM VCTS BKN040CB
     FM220200 VRB04KT 6SM BR SCT040
     FM221000 VRB03KT 3/4SM BR BKN003=

USA.gov is the U.S. government's official web portal to all federal, state and local government web resources and services.